createdAt,value
2022-10-01T00:01:11.874Z,13.17
2022-10-01T00:03:38.271Z,13.19
2022-10-01T00:06:16.531Z,13.14
2022-10-01T00:08:48.594Z,13.09
2022-10-01T00:11:16.476Z,13.05
2022-10-01T00:13:43.250Z,13.09
2022-10-01T00:16:13.777Z,13.02
2022-10-01T00:18:44.246Z,13.04
2022-10-01T00:21:12.146Z,13.04
2022-10-01T00:23:38.554Z,13.01
2022-10-01T00:26:27.074Z,13.01
2022-10-01T00:28:55.550Z,12.99
2022-10-01T00:31:21.924Z,12.87
2022-10-01T00:33:48.777Z,12.90
2022-10-01T00:36:15.170Z,12.92
2022-10-01T00:38:42.176Z,12.86
2022-10-01T00:41:09.163Z,12.85
2022-10-01T00:43:37.758Z,12.80
2022-10-01T00:46:07.719Z,12.79
2022-10-01T00:48:37.581Z,12.79
2022-10-01T00:51:06.452Z,12.74
2022-10-01T00:53:32.894Z,12.67
2022-10-01T00:55:59.840Z,12.60
2022-10-01T00:58:26.803Z,12.69
2022-10-01T01:00:55.575Z,12.67
2022-10-01T01:03:22.160Z,12.69
2022-10-01T01:05:50.157Z,12.69
2022-10-01T01:08:17.446Z,12.67
2022-10-01T01:10:55.876Z,12.67
2022-10-01T01:13:25.193Z,12.65
2022-10-01T01:15:55.962Z,12.67
2022-10-01T01:18:40.922Z,12.65
2022-10-01T01:21:10.349Z,12.69
2022-10-01T01:23:55.538Z,12.68
2022-10-01T01:26:33.553Z,12.63
2022-10-01T01:29:13.381Z,12.71
2022-10-01T01:31:42.601Z,12.68
2022-10-01T01:34:12.389Z,12.59
2022-10-01T01:36:42.413Z,12.63
2022-10-01T01:39:09.998Z,12.72
2022-10-01T01:41:38.558Z,12.56
2022-10-01T01:44:08.835Z,12.61
2022-10-01T01:46:37.669Z,12.63
2022-10-01T01:49:05.225Z,12.60
2022-10-01T01:51:48.591Z,12.57
2022-10-01T01:54:15.025Z,12.62
2022-10-01T01:56:41.941Z,12.58
2022-10-01T01:59:08.528Z,12.48
2022-10-01T02:01:38.862Z,12.45
2022-10-01T02:04:13.033Z,12.56
2022-10-01T02:06:45.298Z,12.56
2022-10-01T02:09:21.292Z,12.50
2022-10-01T02:11:58.684Z,12.56
2022-10-01T02:14:25.016Z,12.49
2022-10-01T02:17:01.380Z,12.48
2022-10-01T02:19:27.652Z,12.55
2022-10-01T02:21:56.984Z,12.59
2022-10-01T02:24:26.151Z,12.53
2022-10-01T02:26:54.713Z,12.56
2022-10-01T02:29:22.458Z,12.47
2022-10-01T02:31:53.435Z,12.51
2022-10-01T02:34:20.964Z,12.42
2022-10-01T02:36:48.725Z,12.49
2022-10-01T02:39:16.330Z,12.64
2022-10-01T02:41:44.148Z,12.64
2022-10-01T02:44:13.657Z,12.54
2022-10-01T02:46:45.227Z,12.57
2022-10-01T02:49:13.295Z,12.63
2022-10-01T02:51:48.836Z,12.65
2022-10-01T02:54:22.514Z,12.63
2022-10-01T02:57:07.596Z,12.61
2022-10-01T02:59:34.098Z,12.66
2022-10-01T03:02:00.463Z,12.64
2022-10-01T03:04:26.802Z,12.63
2022-10-01T03:06:53.194Z,12.65
2022-10-01T03:09:19.497Z,12.67
2022-10-01T03:11:45.805Z,12.72
2022-10-01T03:14:12.145Z,12.74
2022-10-01T03:16:38.628Z,12.72
2022-10-01T03:19:04.997Z,12.84
2022-10-01T03:21:31.667Z,12.87
2022-10-01T03:23:58.178Z,12.87
2022-10-01T03:26:24.499Z,12.85
2022-10-01T03:28:50.916Z,12.93
2022-10-01T03:31:17.318Z,12.92
2022-10-01T03:33:43.690Z,12.91
2022-10-01T03:36:10.015Z,12.91
2022-10-01T03:38:36.375Z,12.89
2022-10-01T03:41:02.709Z,12.91
2022-10-01T03:43:29.079Z,12.90
2022-10-01T03:45:56.486Z,12.92
2022-10-01T03:48:23.213Z,12.96
2022-10-01T03:50:56.997Z,12.94
2022-10-01T03:53:23.709Z,12.98
2022-10-01T03:55:50.386Z,12.94
2022-10-01T03:58:18.714Z,12.98
2022-10-01T04:00:48.170Z,12.97
2022-10-01T04:03:15.286Z,13.02
2022-10-01T04:05:45.165Z,13.05
2022-10-01T04:08:11.872Z,13.07
2022-10-01T04:10:38.531Z,13.07
2022-10-01T04:13:05.314Z,13.11
2022-10-01T04:15:32.730Z,13.17
2022-10-01T04:17:59.841Z,13.16
2022-10-01T04:20:26.147Z,13.20
2022-10-01T04:22:53.006Z,13.20
2022-10-01T04:25:19.448Z,13.24
2022-10-01T04:27:56.843Z,13.28
2022-10-01T04:30:23.606Z,13.30
2022-10-01T04:32:49.914Z,13.35
2022-10-01T04:35:16.316Z,13.41
2022-10-01T04:37:42.597Z,13.39
2022-10-01T04:40:10.622Z,13.42
2022-10-01T04:42:43.552Z,13.42
2022-10-01T04:45:10.421Z,13.39
2022-10-01T04:47:37.688Z,13.43
2022-10-01T04:50:04.405Z,13.49
2022-10-01T04:52:30.755Z,13.47
2022-10-01T04:54:57.090Z,13.55
2022-10-01T04:57:23.558Z,13.54
2022-10-01T04:59:50.887Z,13.59
2022-10-01T05:02:18.065Z,13.59
2022-10-01T05:04:44.437Z,13.65
2022-10-01T05:07:10.727Z,13.66
2022-10-01T05:09:37.562Z,13.73
2022-10-01T05:12:03.890Z,13.77
2022-10-01T05:14:31.256Z,13.79
2022-10-01T05:17:00.343Z,13.78
2022-10-01T05:19:29.025Z,13.73
2022-10-01T05:21:55.588Z,13.80
2022-10-01T05:24:21.933Z,13.83
2022-10-01T05:26:48.285Z,13.80
2022-10-01T05:29:15.158Z,13.83
2022-10-01T05:31:44.602Z,13.79
2022-10-01T05:34:11.040Z,13.80
2022-10-01T05:36:37.395Z,13.83
2022-10-01T05:39:03.765Z,13.81
2022-10-01T05:41:30.861Z,13.84
2022-10-01T05:43:57.425Z,13.81
2022-10-01T05:46:23.798Z,13.82
2022-10-01T05:48:51.211Z,13.79
2022-10-01T05:51:17.652Z,13.80
2022-10-01T05:53:47.088Z,13.83
2022-10-01T05:56:16.607Z,13.81
2022-10-01T05:58:42.929Z,13.83
2022-10-01T06:01:09.224Z,13.85
2022-10-01T06:03:36.076Z,13.83
2022-10-01T06:06:02.402Z,13.81
2022-10-01T06:08:28.767Z,13.83
2022-10-01T06:10:58.696Z,13.81
2022-10-01T06:13:26.440Z,13.83
2022-10-01T06:15:53.044Z,13.87
2022-10-01T06:18:19.473Z,13.91
2022-10-01T06:20:45.818Z,13.97
2022-10-01T06:23:13.336Z,13.99
2022-10-01T06:25:40.453Z,14.08
2022-10-01T06:28:07.442Z,14.16
2022-10-01T06:30:34.492Z,14.17
2022-10-01T06:33:02.717Z,14.24
2022-10-01T06:35:29.508Z,14.19
2022-10-01T06:37:55.810Z,14.21
2022-10-01T06:40:22.142Z,14.25
2022-10-01T06:42:48.943Z,14.22
2022-10-01T06:45:16.018Z,14.25
2022-10-01T06:47:42.323Z,14.28
2022-10-01T06:50:08.746Z,14.32
2022-10-01T06:52:50.665Z,14.35
2022-10-01T06:55:17.761Z,14.39
2022-10-01T06:57:44.707Z,14.43
2022-10-01T07:00:11.550Z,14.48
2022-10-01T07:02:38.220Z,14.49
2022-10-01T07:05:05.181Z,14.55
2022-10-01T07:07:32.662Z,14.61
2022-10-01T07:09:59.118Z,14.70
2022-10-01T07:12:25.611Z,14.80
2022-10-01T07:14:51.945Z,14.95
2022-10-01T07:17:18.311Z,15.13
2022-10-01T07:19:44.653Z,15.41
2022-10-01T07:22:11.400Z,15.59
2022-10-01T07:24:37.894Z,15.85
2022-10-01T07:27:07.371Z,16.17
2022-10-01T07:29:34.154Z,16.30
2022-10-01T07:32:01.018Z,16.46
2022-10-01T07:34:28.315Z,16.57
2022-10-01T07:36:56.160Z,16.58
2022-10-01T07:39:23.006Z,16.71
2022-10-01T07:41:51.442Z,16.65
2022-10-01T07:44:18.533Z,16.79
2022-10-01T07:46:45.258Z,16.80
2022-10-01T07:49:11.741Z,16.86
2022-10-01T07:51:38.065Z,16.83
2022-10-01T07:54:04.969Z,16.82
2022-10-01T07:56:31.567Z,16.93
2022-10-01T07:58:58.644Z,17.10
2022-10-01T08:01:25.212Z,17.34
2022-10-01T08:03:52.356Z,17.45
2022-10-01T08:06:24.592Z,17.55
2022-10-01T08:08:51.810Z,17.70
2022-10-01T08:11:18.271Z,17.85
2022-10-01T08:13:45.717Z,18.04
2022-10-01T08:16:12.300Z,18.16
2022-10-01T08:18:40.543Z,18.35
2022-10-01T08:21:07.429Z,18.43
2022-10-01T08:23:34.405Z,18.43
2022-10-01T08:26:02.034Z,18.24
2022-10-01T08:28:28.496Z,18.26
2022-10-01T08:30:56.104Z,18.59
2022-10-01T08:33:22.827Z,18.82
2022-10-01T08:35:49.187Z,18.84
2022-10-01T08:38:15.632Z,18.71
2022-10-01T08:40:47.244Z,18.44
2022-10-01T08:43:14.242Z,18.48
2022-10-01T08:45:43.100Z,18.82
2022-10-01T08:48:16.644Z,19.08
2022-10-01T08:50:46.456Z,19.18
2022-10-01T08:53:16.574Z,19.35
2022-10-01T08:55:43.871Z,19.52
2022-10-01T08:58:12.138Z,19.74
2022-10-01T09:00:44.532Z,19.84
2022-10-01T09:03:12.853Z,19.63
2022-10-01T09:05:48.177Z,19.36
2022-10-01T09:08:17.261Z,19.18
2022-10-01T09:10:49.657Z,19.00
2022-10-01T09:13:24.492Z,18.89
2022-10-01T09:15:56.706Z,18.88
2022-10-01T09:18:38.080Z,18.72
2022-10-01T09:21:07.550Z,18.53
2022-10-01T09:23:42.538Z,18.40
2022-10-01T09:26:11.218Z,18.28
2022-10-01T09:28:38.353Z,18.06
2022-10-01T09:31:12.120Z,17.98
2022-10-01T09:33:42.470Z,18.23
2022-10-01T09:36:08.755Z,18.38
2022-10-01T09:38:38.586Z,18.62
2022-10-01T09:41:05.113Z,18.98
2022-10-01T09:43:36.744Z,18.93
2022-10-01T09:46:06.704Z,19.11
2022-10-01T09:48:38.500Z,19.18
2022-10-01T09:51:25.098Z,19.28
2022-10-01T09:53:51.505Z,20.06
2022-10-01T09:56:24.314Z,20.30
2022-10-01T09:58:53.986Z,20.59
2022-10-01T10:01:29.168Z,20.29
2022-10-01T10:03:57.125Z,20.45
2022-10-01T10:06:27.302Z,20.60
2022-10-01T10:08:55.143Z,20.41
2022-10-01T10:11:23.978Z,20.13
2022-10-01T10:13:51.554Z,19.78
2022-10-01T10:16:21.786Z,19.48
2022-10-01T10:18:52.178Z,19.28
2022-10-01T10:21:21.561Z,19.03
2022-10-01T10:23:54.163Z,18.50
2022-10-01T10:26:32.498Z,18.35
2022-10-01T10:29:02.039Z,18.13
2022-10-01T10:31:30.056Z,18.02
2022-10-01T10:33:57.378Z,18.23
2022-10-01T10:36:28.884Z,18.63
2022-10-01T10:38:56.218Z,18.66
2022-10-01T10:41:26.458Z,18.42
2022-10-01T10:43:56.136Z,18.44
2022-10-01T10:46:30.410Z,18.31
2022-10-01T10:49:18.361Z,17.97
2022-10-01T10:51:51.243Z,17.95
2022-10-01T10:54:19.069Z,17.86
2022-10-01T10:56:52.696Z,18.14
2022-10-01T10:59:20.893Z,18.93
2022-10-01T11:01:48.099Z,19.51
2022-10-01T11:04:41.044Z,19.81
2022-10-01T11:07:07.944Z,20.20
2022-10-01T11:09:46.329Z,19.96
2022-10-01T11:12:19.611Z,19.93
2022-10-01T11:14:53.440Z,19.58
2022-10-01T11:17:50.556Z,19.33
2022-10-01T11:20:25.469Z,19.20
2022-10-01T11:23:12.080Z,19.67
2022-10-01T11:25:48.342Z,20.81
2022-10-01T11:28:51.316Z,21.10
2022-10-01T11:31:43.487Z,19.54
2022-10-01T13:03:16.525Z,18.95
2022-10-01T13:06:35.763Z,18.70
2022-10-01T13:09:44.248Z,18.49
2022-10-01T13:12:44.060Z,18.76
2022-10-01T13:15:22.309Z,19.19
2022-10-01T13:17:52.338Z,19.14
2022-10-01T13:20:31.086Z,19.10
2022-10-01T13:23:12.260Z,19.06
2022-10-01T13:25:52.744Z,19.13
2022-10-01T13:28:22.449Z,19.35
2022-10-01T13:31:00.437Z,19.50
2022-10-01T13:33:36.064Z,19.79
2022-10-01T13:36:03.696Z,19.90
2022-10-01T13:38:39.139Z,19.84
2022-10-01T13:41:25.776Z,19.86
2022-10-01T13:44:16.815Z,20.27
2022-10-01T13:46:55.104Z,20.37
2022-10-01T13:49:25.151Z,20.43
2022-10-01T13:51:52.572Z,20.18
2022-10-01T13:54:23.913Z,20.32
2022-10-01T13:56:50.285Z,20.27
2022-10-01T13:59:25.129Z,19.89
2022-10-01T14:01:51.715Z,19.77
2022-10-01T14:04:21.137Z,20.11
2022-10-01T14:06:56.917Z,20.25
2022-10-01T14:09:27.635Z,20.79
2022-10-01T14:12:16.464Z,21.05
2022-10-01T14:15:09.647Z,21.21
2022-10-01T14:17:36.743Z,21.19
2022-10-01T14:20:03.744Z,20.87
2022-10-01T14:22:36.114Z,20.50
2022-10-01T14:25:02.548Z,20.41
2022-10-01T14:27:45.575Z,20.50
2022-10-01T14:30:23.297Z,20.10
2022-10-01T14:33:08.729Z,19.77
2022-10-01T14:35:38.041Z,19.50
2022-10-01T14:38:11.533Z,19.19
2022-10-01T14:40:39.780Z,19.00
2022-10-01T14:43:15.339Z,18.62
2022-10-01T14:45:50.988Z,18.46
2022-10-01T14:48:17.347Z,18.09
2022-10-01T14:50:49.227Z,18.32
2022-10-01T14:53:17.549Z,18.28
2022-10-01T14:55:44.114Z,18.13
2022-10-01T14:58:19.016Z,18.07
2022-10-01T15:00:50.618Z,18.22
2022-10-01T15:03:17.118Z,18.28
2022-10-01T15:05:44.752Z,18.39
2022-10-01T15:08:13.265Z,18.29
2022-10-01T15:10:41.419Z,18.05
2022-10-01T15:13:17.337Z,18.21
2022-10-01T15:15:43.873Z,18.29
2022-10-01T15:18:14.994Z,18.26
2022-10-01T15:20:59.186Z,18.20
2022-10-01T15:23:27.442Z,18.17
2022-10-01T15:25:54.745Z,18.01
2022-10-01T15:28:31.833Z,17.90
2022-10-01T15:31:00.867Z,17.94
2022-10-01T15:33:28.972Z,17.93
2022-10-01T15:35:56.537Z,17.87
2022-10-01T15:38:23.710Z,17.92
2022-10-01T15:41:13.892Z,17.80
2022-10-01T15:43:45.264Z,17.75
2022-10-01T15:46:16.955Z,17.77
2022-10-01T15:48:43.556Z,17.64
2022-10-01T15:51:25.371Z,17.61
2022-10-01T15:53:52.816Z,17.58
2022-10-01T15:56:21.297Z,17.49
2022-10-01T15:58:52.377Z,17.50
2022-10-01T16:01:24.815Z,17.50
2022-10-01T16:04:03.333Z,17.43
2022-10-01T16:06:51.871Z,17.44
2022-10-01T16:09:23.617Z,17.25
2022-10-01T16:11:53.277Z,17.33
2022-10-01T16:14:34.572Z,17.31
2022-10-01T16:17:16.408Z,17.24
2022-10-01T16:19:46.968Z,17.22
2022-10-01T16:22:19.158Z,17.17
2022-10-01T16:24:46.693Z,17.20
2022-10-01T16:27:15.635Z,17.20
2022-10-01T16:29:43.297Z,17.19
2022-10-01T16:32:14.029Z,17.22
2022-10-01T16:34:40.386Z,17.18
2022-10-01T16:37:06.740Z,17.16
2022-10-01T16:39:33.116Z,17.15
2022-10-01T16:42:19.477Z,17.10
2022-10-01T16:44:47.889Z,17.05
2022-10-01T16:47:14.257Z,17.03
2022-10-01T16:49:41.703Z,17.01
2022-10-01T16:52:12.902Z,17.03
2022-10-01T16:54:39.298Z,16.96
2022-10-01T16:57:05.726Z,16.87
2022-10-01T16:59:33.730Z,16.88
2022-10-01T17:02:02.147Z,16.86
2022-10-01T17:04:34.097Z,16.79
2022-10-01T17:07:00.795Z,16.73
2022-10-01T17:09:27.287Z,16.73
2022-10-01T17:11:53.895Z,16.74
2022-10-01T17:14:21.235Z,16.70
2022-10-01T17:16:48.510Z,16.63
2022-10-01T17:19:14.965Z,16.56
2022-10-01T17:21:41.865Z,16.54
2022-10-01T17:24:10.782Z,16.47
2022-10-01T17:26:41.297Z,16.51
2022-10-01T17:29:08.768Z,16.50
2022-10-01T17:31:40.606Z,16.47
2022-10-01T17:34:07.180Z,16.46
2022-10-01T17:36:35.250Z,16.47
2022-10-01T17:39:02.038Z,16.50
2022-10-01T17:41:28.424Z,16.50
2022-10-01T17:43:54.761Z,16.47
2022-10-01T17:46:21.209Z,16.46
2022-10-01T17:48:49.138Z,16.44
2022-10-01T17:51:16.955Z,16.41
2022-10-01T17:53:43.702Z,16.37
2022-10-01T17:56:12.967Z,16.33
2022-10-01T17:58:42.949Z,16.30
2022-10-01T18:01:13.442Z,16.26
2022-10-01T18:03:40.794Z,16.27
2022-10-01T18:06:07.973Z,16.24
2022-10-01T18:08:54.095Z,16.23
2022-10-01T18:11:22.278Z,16.21
2022-10-01T18:13:50.498Z,16.18
2022-10-01T18:16:19.220Z,16.15
2022-10-01T18:21:50.961Z,16.07
2022-10-01T18:24:17.478Z,16.04
2022-10-01T18:26:45.540Z,16.06
2022-10-01T18:29:17.018Z,16.04
2022-10-01T18:31:45.071Z,16.02
2022-10-01T18:34:24.902Z,15.99
2022-10-01T18:36:55.198Z,15.97
2022-10-01T18:39:28.372Z,15.94
2022-10-01T18:41:56.148Z,15.92
2022-10-01T18:44:22.991Z,15.88
2022-10-01T18:46:49.556Z,15.84
2022-10-01T18:49:34.476Z,15.82
2022-10-01T18:52:00.856Z,15.80
2022-10-01T18:54:37.433Z,15.74
2022-10-01T18:57:21.236Z,15.73
2022-10-01T19:00:02.199Z,15.70
2022-10-01T19:02:40.663Z,15.61
2022-10-01T19:05:19.972Z,15.54
2022-10-01T19:07:52.529Z,15.47
2022-10-01T19:10:24.874Z,15.38
2022-10-01T19:13:11.699Z,15.34
2022-10-01T19:16:01.135Z,15.30
2022-10-01T19:18:46.573Z,15.24
2022-10-01T19:21:22.362Z,15.19
2022-10-01T19:23:54.450Z,15.12
2022-10-01T19:26:26.521Z,15.07
2022-10-01T19:29:19.285Z,15.00
2022-10-01T19:31:53.773Z,14.97
2022-10-01T19:34:39.171Z,14.98
2022-10-01T19:37:10.106Z,14.93
2022-10-01T19:39:38.150Z,14.89
2022-10-01T19:42:06.513Z,14.86
2022-10-01T19:44:51.744Z,14.83
2022-10-01T19:47:34.601Z,14.77
2022-10-01T19:50:06.362Z,14.72
2022-10-01T19:52:35.395Z,14.68
2022-10-01T19:55:01.753Z,14.65
2022-10-01T19:57:28.683Z,14.59
2022-10-01T19:59:58.050Z,14.54
2022-10-01T20:02:31.974Z,14.49
2022-10-01T20:05:02.286Z,14.43
2022-10-01T20:07:30.283Z,14.40
2022-10-01T20:10:12.124Z,14.36
2022-10-01T20:12:43.284Z,14.34
2022-10-01T20:15:19.822Z,14.35
2022-10-01T20:17:50.033Z,14.32
2022-10-01T20:20:20.916Z,14.33
2022-10-01T20:22:55.110Z,14.35
2022-10-01T20:25:33.651Z,14.30
2022-10-01T20:28:14.979Z,14.35
2022-10-01T20:30:50.690Z,14.35
2022-10-01T20:33:27.528Z,14.36
2022-10-01T20:36:00.564Z,14.37
2022-10-01T20:38:32.652Z,14.29
2022-10-01T20:41:03.301Z,14.33
2022-10-01T20:43:38.499Z,14.31
2022-10-01T20:46:09.039Z,14.34
2022-10-01T20:48:37.640Z,14.32
2022-10-01T20:51:22.553Z,14.32
2022-10-01T20:53:58.434Z,14.34
2022-10-01T20:56:31.387Z,14.35
2022-10-01T20:59:07.914Z,14.34
2022-10-01T21:01:39.910Z,14.37
2022-10-01T21:04:15.347Z,14.35
2022-10-01T21:06:45.764Z,14.39
2022-10-01T21:09:18.431Z,14.36
2022-10-01T21:11:48.126Z,14.37
2022-10-01T21:14:19.583Z,14.38
2022-10-01T21:17:06.606Z,14.34
2022-10-01T21:19:51.928Z,14.32
2022-10-01T21:22:33.918Z,14.34
2022-10-01T21:25:00.866Z,14.36
2022-10-01T21:27:49.553Z,14.38
2022-10-01T21:30:19.885Z,14.32
2022-10-01T21:33:00.109Z,14.38
2022-10-01T21:35:31.643Z,14.36
2022-10-01T21:38:04.594Z,14.37
2022-10-01T21:40:47.618Z,14.34
2022-10-01T21:43:23.765Z,14.32
2022-10-01T21:45:54.044Z,14.32
2022-10-01T21:48:27.635Z,14.31
2022-10-01T21:51:14.483Z,14.30
2022-10-01T21:53:56.037Z,14.28
2022-10-01T21:56:47.257Z,14.29
2022-10-01T21:59:17.416Z,14.30
2022-10-01T22:01:43.968Z,14.27
2022-10-01T22:04:10.524Z,14.30
2022-10-01T22:06:41.643Z,14.29
2022-10-01T22:09:16.693Z,14.27
2022-10-01T22:11:47.789Z,14.31
2022-10-01T22:14:16.572Z,14.34
2022-10-01T22:16:49.991Z,14.30
2022-10-01T22:19:21.259Z,14.29
2022-10-01T22:21:53.722Z,14.29
2022-10-01T22:24:27.289Z,14.27
2022-10-01T22:27:05.449Z,14.26
2022-10-01T22:29:35.945Z,14.26
2022-10-01T22:32:04.391Z,14.26
2022-10-01T22:34:37.623Z,14.21
2022-10-01T22:37:07.958Z,14.23
2022-10-01T22:39:48.435Z,14.22
2022-10-01T22:42:18.549Z,14.24
2022-10-01T22:44:47.863Z,14.26
2022-10-01T22:47:21.964Z,14.27
2022-10-01T22:49:58.203Z,14.24
2022-10-01T22:52:43.933Z,14.24
2022-10-01T22:55:13.338Z,14.25
2022-10-01T22:57:52.257Z,14.28
2022-10-01T23:00:21.190Z,14.29
2022-10-01T23:02:59.144Z,14.28
2022-10-01T23:05:30.257Z,14.27
2022-10-01T23:07:57.176Z,14.27
2022-10-01T23:10:33.895Z,14.26
2022-10-01T23:13:08.520Z,14.28
2022-10-01T23:15:42.494Z,14.34
2022-10-01T23:18:13.756Z,14.40
2022-10-01T23:20:43.590Z,14.46
2022-10-01T23:23:09.852Z,14.50
2022-10-01T23:25:48.437Z,14.52
2022-10-01T23:28:22.339Z,14.51
2022-10-01T23:31:15.427Z,14.52
2022-10-01T23:33:41.912Z,14.54
2022-10-01T23:36:26.436Z,14.54
2022-10-01T23:39:05.034Z,14.56
2022-10-01T23:41:51.690Z,14.56
2022-10-01T23:44:22.744Z,14.53
2022-10-01T23:46:50.675Z,14.54
2022-10-01T23:49:18.177Z,14.52
2022-10-01T23:51:53.663Z,14.47
2022-10-01T23:54:23.751Z,14.44
2022-10-01T23:56:55.200Z,14.42
2022-10-01T23:59:31.429Z,14.39
